sensor_id;sensor_type;location;lat;lon;timestamp;temperature;humidity
11446;DHT22;5779;64.178;15.432;2023-08-30T00:02:03;8.70;99.90
11446;DHT22;5779;64.178;15.432;2023-08-30T00:04:50;8.70;99.90
11446;DHT22;5779;64.178;15.432;2023-08-30T00:07:38;8.70;99.90
11446;DHT22;5779;64.178;15.432;2023-08-30T00:10:25;8.70;99.90
11446;DHT22;5779;64.178;15.432;2023-08-30T00:13:12;8.80;99.90
11446;DHT22;5779;64.178;15.432;2023-08-30T00:15:59;8.70;99.90
11446;DHT22;5779;64.178;15.432;2023-08-30T00:18:47;8.40;99.90
11446;DHT22;5779;64.178;15.432;2023-08-30T00:21:34;8.30;99.90
11446;DHT22;5779;64.178;15.432;2023-08-30T00:24:22;8.20;99.90
11446;DHT22;5779;64.178;15.432;2023-08-30T00:27:09;8.20;99.90
11446;DHT22;5779;64.178;15.432;2023-08-30T00:29:56;8.40;99.90
11446;DHT22;5779;64.178;15.432;2023-08-30T00:32:43;8.30;99.90
11446;DHT22;5779;64.178;15.432;2023-08-30T00:35:30;8.00;99.90
11446;DHT22;5779;64.178;15.432;2023-08-30T00:38:16;8.00;99.90
11446;DHT22;5779;64.178;15.432;2023-08-30T00:41:05;8.20;99.90
11446;DHT22;5779;64.178;15.432;2023-08-30T00:43:51;8.30;99.90
11446;DHT22;5779;64.178;15.432;2023-08-30T00:46:38;8.20;99.90
11446;DHT22;5779;64.178;15.432;2023-08-30T00:49:25;8.00;99.90
11446;DHT22;5779;64.178;15.432;2023-08-30T00:52:12;7.90;99.90
11446;DHT22;5779;64.178;15.432;2023-08-30T00:54:59;7.90;99.90
11446;DHT22;5779;64.178;15.432;2023-08-30T00:57:47;8.20;99.90
11446;DHT22;5779;64.178;15.432;2023-08-30T01:00:34;8.30;99.90
11446;DHT22;5779;64.178;15.432;2023-08-30T01:03:20;8.30;99.90
11446;DHT22;5779;64.178;15.432;2023-08-30T01:06:08;8.30;99.90
11446;DHT22;5779;64.178;15.432;2023-08-30T01:08:55;8.30;99.90
11446;DHT22;5779;64.178;15.432;2023-08-30T01:11:48;8.20;99.90
11446;DHT22;5779;64.178;15.432;2023-08-30T01:14:40;8.40;99.90
11446;DHT22;5779;64.178;15.432;2023-08-30T01:17:30;8.50;99.90
11446;DHT22;5779;64.178;15.432;2023-08-30T01:20:19;8.50;99.90
11446;DHT22;5779;64.178;15.432;2023-08-30T01:23:17;8.50;99.90
11446;DHT22;5779;64.178;15.432;2023-08-30T01:26:11;8.40;99.90
11446;DHT22;5779;64.178;15.432;2023-08-30T01:29:02;8.40;99.90
11446;DHT22;5779;64.178;15.432;2023-08-30T01:31:49;8.40;99.90
11446;DHT22;5779;64.178;15.432;2023-08-30T01:34:38;8.50;99.90
11446;DHT22;5779;64.178;15.432;2023-08-30T01:37:26;8.70;99.90
11446;DHT22;5779;64.178;15.432;2023-08-30T01:40:15;8.80;99.90
11446;DHT22;5779;64.178;15.432;2023-08-30T01:43:02;8.80;99.90
11446;DHT22;5779;64.178;15.432;2023-08-30T01:45:53;8.90;99.90
11446;DHT22;5779;64.178;15.432;2023-08-30T01:48:41;9.00;99.90
11446;DHT22;5779;64.178;15.432;2023-08-30T01:51:30;9.00;99.90
11446;DHT22;5779;64.178;15.432;2023-08-30T01:54:18;8.90;99.90
11446;DHT22;5779;64.178;15.432;2023-08-30T01:57:05;8.80;99.90
11446;DHT22;5779;64.178;15.432;2023-08-30T01:59:52;8.80;99.90
11446;DHT22;5779;64.178;15.432;2023-08-30T02:02:41;8.80;99.90
11446;DHT22;5779;64.178;15.432;2023-08-30T02:05:28;8.80;99.90
11446;DHT22;5779;64.178;15.432;2023-08-30T02:08:16;8.90;99.90
11446;DHT22;5779;64.178;15.432;2023-08-30T02:11:07;8.90;99.90
11446;DHT22;5779;64.178;15.432;2023-08-30T02:13:58;8.80;99.90
11446;DHT22;5779;64.178;15.432;2023-08-30T02:16:46;9.00;99.90
11446;DHT22;5779;64.178;15.432;2023-08-30T02:19:35;9.20;99.90
11446;DHT22;5779;64.178;15.432;2023-08-30T02:22:22;9.10;99.90
11446;DHT22;5779;64.178;15.432;2023-08-30T02:25:09;9.00;99.90
11446;DHT22;5779;64.178;15.432;2023-08-30T02:27:56;8.90;99.90
11446;DHT22;5779;64.178;15.432;2023-08-30T02:30:43;8.90;99.90
11446;DHT22;5779;64.178;15.432;2023-08-30T02:33:29;9.10;99.90
11446;DHT22;5779;64.178;15.432;2023-08-30T02:36:17;9.20;99.90
11446;DHT22;5779;64.178;15.432;2023-08-30T02:39:04;9.10;99.90
11446;DHT22;5779;64.178;15.432;2023-08-30T02:41:51;9.00;99.90
11446;DHT22;5779;64.178;15.432;2023-08-30T02:44:38;9.00;99.90
11446;DHT22;5779;64.178;15.432;2023-08-30T02:47:25;8.90;99.90
11446;DHT22;5779;64.178;15.432;2023-08-30T02:50:15;8.80;99.90
11446;DHT22;5779;64.178;15.432;2023-08-30T02:53:03;9.00;99.90
11446;DHT22;5779;64.178;15.432;2023-08-30T02:55:53;9.10;99.90
11446;DHT22;5779;64.178;15.432;2023-08-30T02:58:41;9.20;99.90
11446;DHT22;5779;64.178;15.432;2023-08-30T03:01:27;9.40;99.90
11446;DHT22;5779;64.178;15.432;2023-08-30T03:04:14;9.50;99.90
11446;DHT22;5779;64.178;15.432;2023-08-30T03:07:01;9.40;99.90
11446;DHT22;5779;64.178;15.432;2023-08-30T03:09:53;9.40;99.90
11446;DHT22;5779;64.178;15.432;2023-08-30T03:12:40;9.40;99.90
11446;DHT22;5779;64.178;15.432;2023-08-30T03:15:27;9.50;99.90
11446;DHT22;5779;64.178;15.432;2023-08-30T03:18:14;9.50;99.90
11446;DHT22;5779;64.178;15.432;2023-08-30T03:21:01;9.50;99.90
11446;DHT22;5779;64.178;15.432;2023-08-30T03:23:47;9.50;99.90
11446;DHT22;5779;64.178;15.432;2023-08-30T03:26:35;9.60;99.90
11446;DHT22;5779;64.178;15.432;2023-08-30T03:29:22;9.80;99.90
11446;DHT22;5779;64.178;15.432;2023-08-30T03:32:09;9.70;99.90
11446;DHT22;5779;64.178;15.432;2023-08-30T03:34:55;9.60;99.90
11446;DHT22;5779;64.178;15.432;2023-08-30T03:37:42;9.50;99.90
11446;DHT22;5779;64.178;15.432;2023-08-30T03:40:30;9.60;99.90
11446;DHT22;5779;64.178;15.432;2023-08-30T03:43:18;9.70;99.90
11446;DHT22;5779;64.178;15.432;2023-08-30T03:46:05;9.80;99.90
11446;DHT22;5779;64.178;15.432;2023-08-30T03:48:52;9.90;99.90
11446;DHT22;5779;64.178;15.432;2023-08-30T03:51:38;9.90;99.90
11446;DHT22;5779;64.178;15.432;2023-08-30T03:54:25;9.80;99.90
11446;DHT22;5779;64.178;15.432;2023-08-30T03:57:12;9.70;99.90
11446;DHT22;5779;64.178;15.432;2023-08-30T04:00:01;9.70;99.90
11446;DHT22;5779;64.178;15.432;2023-08-30T04:02:49;9.70;99.90
11446;DHT22;5779;64.178;15.432;2023-08-30T04:05:37;9.60;99.90
11446;DHT22;5779;64.178;15.432;2023-08-30T04:08:23;9.60;99.90
11446;DHT22;5779;64.178;15.432;2023-08-30T04:11:10;9.80;99.90
11446;DHT22;5779;64.178;15.432;2023-08-30T04:13:57;9.80;99.90
11446;DHT22;5779;64.178;15.432;2023-08-30T04:16:45;10.00;99.90
11446;DHT22;5779;64.178;15.432;2023-08-30T04:19:32;10.00;99.90
11446;DHT22;5779;64.178;15.432;2023-08-30T04:22:18;10.00;99.90
11446;DHT22;5779;64.178;15.432;2023-08-30T04:25:06;9.90;99.90
11446;DHT22;5779;64.178;15.432;2023-08-30T04:27:54;9.70;99.90
11446;DHT22;5779;64.178;15.432;2023-08-30T04:30:41;9.70;99.90
11446;DHT22;5779;64.178;15.432;2023-08-30T04:33:29;9.70;99.90
11446;DHT22;5779;64.178;15.432;2023-08-30T04:36:16;10.00;99.90
11446;DHT22;5779;64.178;15.432;2023-08-30T04:39:03;10.10;99.90
11446;DHT22;5779;64.178;15.432;2023-08-30T04:41:50;10.20;99.90
11446;DHT22;5779;64.178;15.432;2023-08-30T04:44:37;10.10;99.90
11446;DHT22;5779;64.178;15.432;2023-08-30T04:47:24;10.40;99.90
11446;DHT22;5779;64.178;15.432;2023-08-30T04:50:12;10.50;99.90
11446;DHT22;5779;64.178;15.432;2023-08-30T04:52:59;10.50;99.90
11446;DHT22;5779;64.178;15.432;2023-08-30T04:55:46;10.50;99.90
11446;DHT22;5779;64.178;15.432;2023-08-30T04:58:33;10.40;99.90
11446;DHT22;5779;64.178;15.432;2023-08-30T05:01:20;10.40;99.90
11446;DHT22;5779;64.178;15.432;2023-08-30T05:04:07;10.30;99.90
11446;DHT22;5779;64.178;15.432;2023-08-30T05:06:55;10.10;99.90
11446;DHT22;5779;64.178;15.432;2023-08-30T05:09:41;9.90;99.90
11446;DHT22;5779;64.178;15.432;2023-08-30T05:12:28;9.90;99.90
11446;DHT22;5779;64.178;15.432;2023-08-30T05:15:15;9.80;99.90
11446;DHT22;5779;64.178;15.432;2023-08-30T05:18:02;9.90;99.90
11446;DHT22;5779;64.178;15.432;2023-08-30T05:20:49;10.00;99.90
11446;DHT22;5779;64.178;15.432;2023-08-30T05:23:37;10.20;99.90
11446;DHT22;5779;64.178;15.432;2023-08-30T05:26:26;10.30;99.90
11446;DHT22;5779;64.178;15.432;2023-08-30T05:29:13;10.10;99.90
11446;DHT22;5779;64.178;15.432;2023-08-30T05:32:00;9.90;99.90
11446;DHT22;5779;64.178;15.432;2023-08-30T05:34:47;10.20;99.90
11446;DHT22;5779;64.178;15.432;2023-08-30T05:37:34;10.40;99.90
11446;DHT22;5779;64.178;15.432;2023-08-30T05:40:22;10.60;99.90
11446;DHT22;5779;64.178;15.432;2023-08-30T05:43:09;10.90;99.90
11446;DHT22;5779;64.178;15.432;2023-08-30T05:45:56;11.00;99.90
11446;DHT22;5779;64.178;15.432;2023-08-30T05:48:47;10.80;99.90
11446;DHT22;5779;64.178;15.432;2023-08-30T05:51:34;10.50;99.90
11446;DHT22;5779;64.178;15.432;2023-08-30T05:54:21;10.40;99.90
11446;DHT22;5779;64.178;15.432;2023-08-30T05:57:10;10.40;99.90
11446;DHT22;5779;64.178;15.432;2023-08-30T05:59:56;10.70;99.90
11446;DHT22;5779;64.178;15.432;2023-08-30T06:02:44;10.90;99.90
11446;DHT22;5779;64.178;15.432;2023-08-30T06:05:33;11.00;99.90
11446;DHT22;5779;64.178;15.432;2023-08-30T06:08:20;11.10;99.90
11446;DHT22;5779;64.178;15.432;2023-08-30T06:11:07;11.20;99.90
11446;DHT22;5779;64.178;15.432;2023-08-30T06:13:55;11.30;99.90
11446;DHT22;5779;64.178;15.432;2023-08-30T06:16:44;11.30;99.90
11446;DHT22;5779;64.178;15.432;2023-08-30T06:19:31;11.50;99.90
11446;DHT22;5779;64.178;15.432;2023-08-30T06:22:18;11.50;99.90
11446;DHT22;5779;64.178;15.432;2023-08-30T06:25:05;11.60;99.90
11446;DHT22;5779;64.178;15.432;2023-08-30T06:27:57;11.70;99.90
11446;DHT22;5779;64.178;15.432;2023-08-30T06:30:45;11.80;99.90
11446;DHT22;5779;64.178;15.432;2023-08-30T06:33:32;11.70;99.90
11446;DHT22;5779;64.178;15.432;2023-08-30T06:36:19;11.80;99.90
11446;DHT22;5779;64.178;15.432;2023-08-30T06:39:08;11.90;99.90
11446;DHT22;5779;64.178;15.432;2023-08-30T06:41:55;12.00;99.90
11446;DHT22;5779;64.178;15.432;2023-08-30T06:44:42;12.10;99.90
11446;DHT22;5779;64.178;15.432;2023-08-30T06:47:30;12.20;99.90
11446;DHT22;5779;64.178;15.432;2023-08-30T06:50:19;12.20;99.90
11446;DHT22;5779;64.178;15.432;2023-08-30T06:53:06;12.20;99.90
11446;DHT22;5779;64.178;15.432;2023-08-30T06:55:58;12.30;99.90
11446;DHT22;5779;64.178;15.432;2023-08-30T06:58:44;12.30;99.90
11446;DHT22;5779;64.178;15.432;2023-08-30T07:01:31;12.60;99.90
11446;DHT22;5779;64.178;15.432;2023-08-30T07:04:20;12.80;99.90
11446;DHT22;5779;64.178;15.432;2023-08-30T07:07:06;12.80;99.90
11446;DHT22;5779;64.178;15.432;2023-08-30T07:09:53;12.80;99.90
11446;DHT22;5779;64.178;15.432;2023-08-30T07:12:40;12.90;99.90
11446;DHT22;5779;64.178;15.432;2023-08-30T07:15:27;13.00;99.90
11446;DHT22;5779;64.178;15.432;2023-08-30T07:18:14;13.00;99.90
11446;DHT22;5779;64.178;15.432;2023-08-30T07:21:02;13.00;99.90
11446;DHT22;5779;64.178;15.432;2023-08-30T07:23:49;13.00;99.90
11446;DHT22;5779;64.178;15.432;2023-08-30T07:26:36;13.10;99.90
11446;DHT22;5779;64.178;15.432;2023-08-30T07:29:23;13.10;99.90
11446;DHT22;5779;64.178;15.432;2023-08-30T07:32:09;13.30;99.90
11446;DHT22;5779;64.178;15.432;2023-08-30T07:34:56;13.40;99.90
11446;DHT22;5779;64.178;15.432;2023-08-30T07:37:44;13.60;99.90
11446;DHT22;5779;64.178;15.432;2023-08-30T07:40:31;13.80;99.90
11446;DHT22;5779;64.178;15.432;2023-08-30T07:43:18;13.80;99.90
11446;DHT22;5779;64.178;15.432;2023-08-30T07:46:05;13.70;99.90
11446;DHT22;5779;64.178;15.432;2023-08-30T07:48:52;13.80;99.90
11446;DHT22;5779;64.178;15.432;2023-08-30T07:51:38;13.80;99.90
11446;DHT22;5779;64.178;15.432;2023-08-30T07:54:27;13.70;99.90
11446;DHT22;5779;64.178;15.432;2023-08-30T07:57:14;13.70;99.90
11446;DHT22;5779;64.178;15.432;2023-08-30T08:00:01;13.70;99.90
11446;DHT22;5779;64.178;15.432;2023-08-30T08:02:48;13.90;99.90
11446;DHT22;5779;64.178;15.432;2023-08-30T08:05:36;13.90;99.90
11446;DHT22;5779;64.178;15.432;2023-08-30T08:08:23;13.80;99.90
11446;DHT22;5779;64.178;15.432;2023-08-30T08:11:12;13.80;99.90
11446;DHT22;5779;64.178;15.432;2023-08-30T08:13:58;13.90;99.90
11446;DHT22;5779;64.178;15.432;2023-08-30T08:16:45;13.90;99.90
11446;DHT22;5779;64.178;15.432;2023-08-30T08:19:32;14.00;99.90
11446;DHT22;5779;64.178;15.432;2023-08-30T08:22:24;14.10;99.90
11446;DHT22;5779;64.178;15.432;2023-08-30T08:25:12;14.00;99.90
11446;DHT22;5779;64.178;15.432;2023-08-30T08:28:00;13.90;99.90
11446;DHT22;5779;64.178;15.432;2023-08-30T08:30:48;14.00;99.90
11446;DHT22;5779;64.178;15.432;2023-08-30T08:33:36;14.10;99.90
11446;DHT22;5779;64.178;15.432;2023-08-30T08:36:23;14.10;99.90
11446;DHT22;5779;64.178;15.432;2023-08-30T08:39:10;14.30;99.90
11446;DHT22;5779;64.178;15.432;2023-08-30T08:42:02;14.30;99.90
11446;DHT22;5779;64.178;15.432;2023-08-30T08:44:51;14.30;99.90
11446;DHT22;5779;64.178;15.432;2023-08-30T08:47:38;14.40;99.90
11446;DHT22;5779;64.178;15.432;2023-08-30T08:50:25;14.50;99.90
11446;DHT22;5779;64.178;15.432;2023-08-30T08:53:13;14.40;99.90
11446;DHT22;5779;64.178;15.432;2023-08-30T08:56:01;14.40;99.90
11446;DHT22;5779;64.178;15.432;2023-08-30T08:58:48;14.40;99.90
11446;DHT22;5779;64.178;15.432;2023-08-30T09:01:37;14.40;99.90
11446;DHT22;5779;64.178;15.432;2023-08-30T09:04:25;14.40;99.90
11446;DHT22;5779;64.178;15.432;2023-08-30T09:07:12;14.50;99.90
11446;DHT22;5779;64.178;15.432;2023-08-30T09:09:59;14.50;99.90
11446;DHT22;5779;64.178;15.432;2023-08-30T09:12:45;14.60;99.90
11446;DHT22;5779;64.178;15.432;2023-08-30T09:15:32;14.50;99.90
11446;DHT22;5779;64.178;15.432;2023-08-30T09:18:21;14.60;99.90
11446;DHT22;5779;64.178;15.432;2023-08-30T09:21:13;14.60;99.90
11446;DHT22;5779;64.178;15.432;2023-08-30T09:24:01;14.60;99.90
11446;DHT22;5779;64.178;15.432;2023-08-30T09:26:49;14.50;99.90
11446;DHT22;5779;64.178;15.432;2023-08-30T09:29:36;14.60;99.90
11446;DHT22;5779;64.178;15.432;2023-08-30T09:32:22;14.60;99.90
11446;DHT22;5779;64.178;15.432;2023-08-30T09:35:11;14.60;99.90
11446;DHT22;5779;64.178;15.432;2023-08-30T09:37:58;14.60;99.90
11446;DHT22;5779;64.178;15.432;2023-08-30T09:40:44;14.60;99.90
11446;DHT22;5779;64.178;15.432;2023-08-30T09:43:32;14.90;99.90
11446;DHT22;5779;64.178;15.432;2023-08-30T09:46:19;14.80;99.90
11446;DHT22;5779;64.178;15.432;2023-08-30T09:49:06;14.80;99.90
11446;DHT22;5779;64.178;15.432;2023-08-30T09:51:54;15.00;99.90
11446;DHT22;5779;64.178;15.432;2023-08-30T09:54:42;15.20;99.90
11446;DHT22;5779;64.178;15.432;2023-08-30T09:57:30;15.30;99.90
11446;DHT22;5779;64.178;15.432;2023-08-30T10:00:17;15.30;99.90
11446;DHT22;5779;64.178;15.432;2023-08-30T10:03:05;15.30;99.90
11446;DHT22;5779;64.178;15.432;2023-08-30T10:05:54;15.20;99.90
11446;DHT22;5779;64.178;15.432;2023-08-30T10:08:43;15.20;99.90
11446;DHT22;5779;64.178;15.432;2023-08-30T10:11:33;15.40;99.90
11446;DHT22;5779;64.178;15.432;2023-08-30T10:14:21;15.50;99.90
11446;DHT22;5779;64.178;15.432;2023-08-30T10:17:12;15.60;99.90
11446;DHT22;5779;64.178;15.432;2023-08-30T10:20:04;15.80;99.90
11446;DHT22;5779;64.178;15.432;2023-08-30T10:22:52;15.80;99.90
11446;DHT22;5779;64.178;15.432;2023-08-30T10:25:41;15.50;99.90
11446;DHT22;5779;64.178;15.432;2023-08-30T10:28:28;15.60;99.90
11446;DHT22;5779;64.178;15.432;2023-08-30T10:31:16;15.70;99.90
11446;DHT22;5779;64.178;15.432;2023-08-30T10:34:13;15.70;99.90
11446;DHT22;5779;64.178;15.432;2023-08-30T10:37:00;15.80;99.90
11446;DHT22;5779;64.178;15.432;2023-08-30T10:39:48;16.00;99.90
11446;DHT22;5779;64.178;15.432;2023-08-30T10:42:37;16.00;99.90
11446;DHT22;5779;64.178;15.432;2023-08-30T10:45:24;15.90;99.90
11446;DHT22;5779;64.178;15.432;2023-08-30T10:48:11;15.80;99.90
11446;DHT22;5779;64.178;15.432;2023-08-30T10:50:58;15.60;99.90
11446;DHT22;5779;64.178;15.432;2023-08-30T10:53:55;15.60;99.90
11446;DHT22;5779;64.178;15.432;2023-08-30T10:56:47;15.60;99.90
11446;DHT22;5779;64.178;15.432;2023-08-30T10:59:36;15.60;99.90
11446;DHT22;5779;64.178;15.432;2023-08-30T11:02:23;15.40;99.90
11446;DHT22;5779;64.178;15.432;2023-08-30T11:05:11;15.40;99.90
11446;DHT22;5779;64.178;15.432;2023-08-30T11:07:58;15.40;99.90
11446;DHT22;5779;64.178;15.432;2023-08-30T11:10:45;15.40;99.90
11446;DHT22;5779;64.178;15.432;2023-08-30T11:13:32;15.50;99.90
11446;DHT22;5779;64.178;15.432;2023-08-30T11:16:23;15.60;99.90
11446;DHT22;5779;64.178;15.432;2023-08-30T11:19:10;15.90;99.90
11446;DHT22;5779;64.178;15.432;2023-08-30T11:21:58;16.00;99.90
11446;DHT22;5779;64.178;15.432;2023-08-30T11:24:47;16.10;99.90
11446;DHT22;5779;64.178;15.432;2023-08-30T11:27:35;16.20;99.90
11446;DHT22;5779;64.178;15.432;2023-08-30T11:30:22;16.20;99.90
11446;DHT22;5779;64.178;15.432;2023-08-30T11:33:13;16.30;99.90
11446;DHT22;5779;64.178;15.432;2023-08-30T11:36:03;16.40;99.90
11446;DHT22;5779;64.178;15.432;2023-08-30T11:38:51;16.30;99.90
11446;DHT22;5779;64.178;15.432;2023-08-30T11:41:38;16.40;99.90
11446;DHT22;5779;64.178;15.432;2023-08-30T11:44:28;16.40;99.90
11446;DHT22;5779;64.178;15.432;2023-08-30T11:47:18;16.30;99.90
11446;DHT22;5779;64.178;15.432;2023-08-30T11:50:08;16.30;99.90
11446;DHT22;5779;64.178;15.432;2023-08-30T11:52:57;16.50;99.90
11446;DHT22;5779;64.178;15.432;2023-08-30T11:55:43;16.60;99.90
11446;DHT22;5779;64.178;15.432;2023-08-30T11:58:32;16.50;99.90
11446;DHT22;5779;64.178;15.432;2023-08-30T12:01:19;16.60;99.90
11446;DHT22;5779;64.178;15.432;2023-08-30T12:04:11;16.60;99.90
11446;DHT22;5779;64.178;15.432;2023-08-30T12:07:00;16.70;99.90
11446;DHT22;5779;64.178;15.432;2023-08-30T12:09:49;16.70;99.90
11446;DHT22;5779;64.178;15.432;2023-08-30T12:12:36;16.50;99.90
11446;DHT22;5779;64.178;15.432;2023-08-30T12:15:23;16.60;99.90
11446;DHT22;5779;64.178;15.432;2023-08-30T12:18:12;16.50;99.90
11446;DHT22;5779;64.178;15.432;2023-08-30T12:21:01;16.60;99.90
11446;DHT22;5779;64.178;15.432;2023-08-30T12:23:59;16.80;99.90
11446;DHT22;5779;64.178;15.432;2023-08-30T12:26:48;17.00;99.90
11446;DHT22;5779;64.178;15.432;2023-08-30T12:29:35;17.00;99.90
11446;DHT22;5779;64.178;15.432;2023-08-30T12:32:22;17.20;99.90
11446;DHT22;5779;64.178;15.432;2023-08-30T12:35:09;17.20;99.90
11446;DHT22;5779;64.178;15.432;2023-08-30T12:37:56;17.20;99.90
11446;DHT22;5779;64.178;15.432;2023-08-30T12:40:44;17.20;99.90
11446;DHT22;5779;64.178;15.432;2023-08-30T12:43:31;17.20;99.90
11446;DHT22;5779;64.178;15.432;2023-08-30T12:46:18;17.00;99.90
11446;DHT22;5779;64.178;15.432;2023-08-30T12:49:05;17.10;99.90
11446;DHT22;5779;64.178;15.432;2023-08-30T12:51:52;17.30;99.90
11446;DHT22;5779;64.178;15.432;2023-08-30T12:54:39;17.40;99.90
11446;DHT22;5779;64.178;15.432;2023-08-30T12:57:27;17.30;99.90
11446;DHT22;5779;64.178;15.432;2023-08-30T13:00:14;17.40;99.90
11446;DHT22;5779;64.178;15.432;2023-08-30T13:03:04;17.20;99.90
11446;DHT22;5779;64.178;15.432;2023-08-30T13:05:51;16.90;99.90
11446;DHT22;5779;64.178;15.432;2023-08-30T13:08:38;16.60;99.90
11446;DHT22;5779;64.178;15.432;2023-08-30T13:11:25;16.60;99.90
11446;DHT22;5779;64.178;15.432;2023-08-30T13:14:17;16.60;99.90
11446;DHT22;5779;64.178;15.432;2023-08-30T13:17:04;16.60;99.90
11446;DHT22;5779;64.178;15.432;2023-08-30T13:19:53;16.70;99.90
11446;DHT22;5779;64.178;15.432;2023-08-30T13:22:43;16.70;99.90
11446;DHT22;5779;64.178;15.432;2023-08-30T13:25:32;16.70;99.90
11446;DHT22;5779;64.178;15.432;2023-08-30T13:28:20;16.60;99.90
11446;DHT22;5779;64.178;15.432;2023-08-30T13:31:09;16.70;99.90
11446;DHT22;5779;64.178;15.432;2023-08-30T13:33:57;16.70;99.90
11446;DHT22;5779;64.178;15.432;2023-08-30T13:36:44;16.70;99.90
11446;DHT22;5779;64.178;15.432;2023-08-30T13:39:31;16.60;99.90
11446;DHT22;5779;64.178;15.432;2023-08-30T13:42:19;16.60;99.90
11446;DHT22;5779;64.178;15.432;2023-08-30T13:45:07;16.50;99.90
11446;DHT22;5779;64.178;15.432;2023-08-30T13:47:56;16.40;99.90
11446;DHT22;5779;64.178;15.432;2023-08-30T13:50:45;16.10;99.90
11446;DHT22;5779;64.178;15.432;2023-08-30T13:53:34;16.50;99.90
11446;DHT22;5779;64.178;15.432;2023-08-30T13:56:21;16.70;99.90
11446;DHT22;5779;64.178;15.432;2023-08-30T13:59:09;17.00;99.90
11446;DHT22;5779;64.178;15.432;2023-08-30T14:01:55;17.10;99.90
11446;DHT22;5779;64.178;15.432;2023-08-30T14:04:47;17.40;99.90
11446;DHT22;5779;64.178;15.432;2023-08-30T14:07:37;17.50;99.90
11446;DHT22;5779;64.178;15.432;2023-08-30T14:10:23;17.90;99.90
11446;DHT22;5779;64.178;15.432;2023-08-30T14:13:13;18.30;99.90
11446;DHT22;5779;64.178;15.432;2023-08-30T14:16:02;18.70;99.90
11446;DHT22;5779;64.178;15.432;2023-08-30T14:18:51;18.70;99.90
11446;DHT22;5779;64.178;15.432;2023-08-30T14:21:41;18.70;99.90
11446;DHT22;5779;64.178;15.432;2023-08-30T14:24:30;19.00;99.90
11446;DHT22;5779;64.178;15.432;2023-08-30T14:27:16;19.10;99.90
11446;DHT22;5779;64.178;15.432;2023-08-30T14:30:06;19.50;99.90
11446;DHT22;5779;64.178;15.432;2023-08-30T14:32:53;19.50;99.90
11446;DHT22;5779;64.178;15.432;2023-08-30T14:35:41;19.30;99.90
11446;DHT22;5779;64.178;15.432;2023-08-30T14:38:31;19.30;99.90
11446;DHT22;5779;64.178;15.432;2023-08-30T14:41:18;18.80;99.90
11446;DHT22;5779;64.178;15.432;2023-08-30T14:44:07;18.30;99.90
11446;DHT22;5779;64.178;15.432;2023-08-30T14:46:54;18.00;99.90
11446;DHT22;5779;64.178;15.432;2023-08-30T14:49:44;18.00;99.90
11446;DHT22;5779;64.178;15.432;2023-08-30T14:52:31;17.90;99.90
11446;DHT22;5779;64.178;15.432;2023-08-30T14:55:21;18.00;99.90
11446;DHT22;5779;64.178;15.432;2023-08-30T14:58:09;18.00;99.90
11446;DHT22;5779;64.178;15.432;2023-08-30T15:00:58;18.00;99.90
11446;DHT22;5779;64.178;15.432;2023-08-30T15:03:45;17.90;99.90
11446;DHT22;5779;64.178;15.432;2023-08-30T15:06:32;17.80;99.90
11446;DHT22;5779;64.178;15.432;2023-08-30T15:09:18;17.90;99.90
11446;DHT22;5779;64.178;15.432;2023-08-30T15:12:07;17.80;99.90
11446;DHT22;5779;64.178;15.432;2023-08-30T15:14:54;17.90;99.90
11446;DHT22;5779;64.178;15.432;2023-08-30T15:17:41;17.90;99.90
11446;DHT22;5779;64.178;15.432;2023-08-30T15:20:28;17.80;99.90
11446;DHT22;5779;64.178;15.432;2023-08-30T15:23:16;17.60;99.90
11446;DHT22;5779;64.178;15.432;2023-08-30T15:26:05;17.60;99.90
11446;DHT22;5779;64.178;15.432;2023-08-30T15:28:53;17.60;99.90
11446;DHT22;5779;64.178;15.432;2023-08-30T15:31:40;17.60;99.90
11446;DHT22;5779;64.178;15.432;2023-08-30T15:34:27;17.50;99.90
11446;DHT22;5779;64.178;15.432;2023-08-30T15:37:14;17.60;99.90
11446;DHT22;5779;64.178;15.432;2023-08-30T15:40:02;17.70;99.90
11446;DHT22;5779;64.178;15.432;2023-08-30T15:42:49;18.00;99.90
11446;DHT22;5779;64.178;15.432;2023-08-30T15:45:38;17.90;99.90
11446;DHT22;5779;64.178;15.432;2023-08-30T15:48:28;17.70;99.90
11446;DHT22;5779;64.178;15.432;2023-08-30T15:51:15;17.70;99.90
11446;DHT22;5779;64.178;15.432;2023-08-30T15:54:02;17.60;99.90
11446;DHT22;5779;64.178;15.432;2023-08-30T15:56:49;17.60;99.90
11446;DHT22;5779;64.178;15.432;2023-08-30T15:59:36;17.50;99.90
11446;DHT22;5779;64.178;15.432;2023-08-30T16:02:24;17.50;99.90
11446;DHT22;5779;64.178;15.432;2023-08-30T16:05:12;17.60;99.90
11446;DHT22;5779;64.178;15.432;2023-08-30T16:07:59;17.50;99.90
11446;DHT22;5779;64.178;15.432;2023-08-30T16:10:52;17.40;99.90
11446;DHT22;5779;64.178;15.432;2023-08-30T16:13:39;17.40;99.90
11446;DHT22;5779;64.178;15.432;2023-08-30T16:16:26;17.30;99.90
11446;DHT22;5779;64.178;15.432;2023-08-30T16:19:15;16.90;99.90
11446;DHT22;5779;64.178;15.432;2023-08-30T16:22:01;16.70;99.90
11446;DHT22;5779;64.178;15.432;2023-08-30T16:24:49;16.90;99.90
11446;DHT22;5779;64.178;15.432;2023-08-30T16:27:35;17.00;99.90
11446;DHT22;5779;64.178;15.432;2023-08-30T16:30:22;16.70;99.90
11446;DHT22;5779;64.178;15.432;2023-08-30T16:33:10;16.60;99.90
11446;DHT22;5779;64.178;15.432;2023-08-30T16:36:05;16.60;99.90
11446;DHT22;5779;64.178;15.432;2023-08-30T16:38:51;16.30;99.90
11446;DHT22;5779;64.178;15.432;2023-08-30T16:41:38;16.00;99.90
11446;DHT22;5779;64.178;15.432;2023-08-30T16:44:25;16.00;99.90
11446;DHT22;5779;64.178;15.432;2023-08-30T16:47:12;15.70;99.90
11446;DHT22;5779;64.178;15.432;2023-08-30T16:49:58;15.70;99.90
11446;DHT22;5779;64.178;15.432;2023-08-30T16:52:48;15.50;99.90
11446;DHT22;5779;64.178;15.432;2023-08-30T16:55:34;15.60;99.90
11446;DHT22;5779;64.178;15.432;2023-08-30T16:58:21;15.40;99.90
11446;DHT22;5779;64.178;15.432;2023-08-30T17:01:08;15.50;99.90
11446;DHT22;5779;64.178;15.432;2023-08-30T17:03:55;15.60;99.90
11446;DHT22;5779;64.178;15.432;2023-08-30T17:06:42;15.80;99.90
11446;DHT22;5779;64.178;15.432;2023-08-30T17:09:33;15.40;99.90
11446;DHT22;5779;64.178;15.432;2023-08-30T17:12:20;15.40;99.90
11446;DHT22;5779;64.178;15.432;2023-08-30T17:15:07;15.50;99.90
11446;DHT22;5779;64.178;15.432;2023-08-30T17:17:54;15.70;99.90
11446;DHT22;5779;64.178;15.432;2023-08-30T17:20:40;15.70;99.90
11446;DHT22;5779;64.178;15.432;2023-08-30T17:23:27;15.70;99.90
11446;DHT22;5779;64.178;15.432;2023-08-30T17:26:15;15.60;99.90
11446;DHT22;5779;64.178;15.432;2023-08-30T17:29:03;15.60;99.90
11446;DHT22;5779;64.178;15.432;2023-08-30T17:31:50;15.60;99.90
11446;DHT22;5779;64.178;15.432;2023-08-30T17:34:38;15.80;99.90
11446;DHT22;5779;64.178;15.432;2023-08-30T17:37:25;15.70;99.90
11446;DHT22;5779;64.178;15.432;2023-08-30T17:40:12;15.70;99.90
11446;DHT22;5779;64.178;15.432;2023-08-30T17:43:00;15.60;99.90
11446;DHT22;5779;64.178;15.432;2023-08-30T17:45:47;15.50;99.90